createdAt,value
2022-10-26T00:00:28.595Z,16.70
2022-10-26T00:02:55.719Z,16.62
2022-10-26T00:05:24.974Z,16.67
2022-10-26T00:07:51.344Z,16.80
2022-10-26T00:10:17.710Z,16.76
2022-10-26T00:12:44.015Z,16.79
2022-10-26T00:15:10.562Z,16.96
2022-10-26T00:17:36.893Z,16.89
2022-10-26T00:20:03.500Z,16.76
2022-10-26T00:22:29.878Z,16.69
2022-10-26T00:24:56.297Z,16.76
2022-10-26T00:27:22.581Z,16.66
2022-10-26T00:29:48.911Z,16.71
2022-10-26T00:32:15.505Z,16.79
2022-10-26T00:34:42.928Z,16.47
2022-10-26T00:37:09.657Z,16.56
2022-10-26T00:39:36.723Z,16.71
2022-10-26T00:42:03.307Z,16.61
2022-10-26T00:44:48.002Z,16.75
2022-10-26T00:47:16.082Z,16.76
2022-10-26T00:49:46.592Z,16.60
2022-10-26T00:52:15.247Z,16.69
2022-10-26T00:54:41.648Z,16.63
2022-10-26T00:57:08.111Z,16.87
2022-10-26T00:59:34.547Z,16.08
2022-10-26T01:02:00.976Z,16.76
2022-10-26T01:04:27.406Z,16.86
2022-10-26T01:06:54.420Z,16.56
2022-10-26T01:09:21.616Z,16.76
2022-10-26T01:11:47.989Z,16.62
2022-10-26T01:14:18.044Z,16.53
2022-10-26T01:17:21.354Z,16.75
2022-10-26T01:20:08.911Z,16.78
2022-10-26T01:22:47.287Z,16.58
2022-10-26T01:25:39.066Z,16.56
2022-10-26T01:28:26.502Z,16.68
2022-10-26T01:30:55.607Z,16.47
2022-10-26T01:33:45.878Z,16.45
2022-10-26T01:36:42.332Z,16.77
2022-10-26T01:39:14.513Z,16.81
2022-10-26T01:41:46.946Z,16.75
2022-10-26T01:44:19.528Z,16.54
2022-10-26T01:46:49.154Z,16.35
2022-10-26T01:49:19.975Z,16.69
2022-10-26T01:51:48.480Z,16.66
2022-10-26T01:54:15.481Z,16.50
2022-10-26T01:56:46.399Z,16.62
2022-10-26T01:59:20.016Z,16.75
2022-10-26T02:01:50.731Z,16.82
2022-10-26T02:04:59.442Z,16.42
2022-10-26T02:07:34.713Z,16.82
2022-10-26T02:10:30.894Z,16.79
2022-10-26T02:13:10.416Z,16.63
2022-10-26T02:15:52.933Z,16.71
2022-10-26T02:18:38.120Z,16.71
2022-10-26T02:21:09.726Z,16.81
2022-10-26T02:23:40.052Z,16.81
2022-10-26T02:26:09.316Z,16.65
2022-10-26T02:28:39.071Z,16.53
2022-10-26T02:31:07.505Z,16.55
2022-10-26T02:33:38.841Z,16.76
2022-10-26T02:36:09.333Z,16.49
2022-10-26T02:38:38.119Z,16.74
2022-10-26T02:41:06.283Z,16.65
2022-10-26T02:43:38.313Z,16.59
2022-10-26T02:46:09.390Z,16.80
2022-10-26T02:48:36.207Z,16.60
2022-10-26T02:51:08.281Z,16.80
2022-10-26T02:53:46.138Z,16.76
2022-10-26T02:56:20.281Z,16.70
2022-10-26T02:58:52.543Z,16.78
2022-10-26T03:01:19.069Z,16.61
2022-10-26T03:03:46.642Z,16.64
2022-10-26T03:06:20.823Z,16.85
2022-10-26T03:08:47.402Z,16.66
2022-10-26T03:11:13.690Z,16.74
2022-10-26T03:13:40.058Z,16.85
2022-10-26T03:16:06.667Z,16.62
2022-10-26T03:18:33.017Z,16.77
2022-10-26T03:20:59.357Z,16.73
2022-10-26T03:23:25.724Z,16.76
2022-10-26T03:25:52.050Z,16.62
2022-10-26T03:28:18.393Z,16.67
2022-10-26T03:30:44.695Z,16.67
2022-10-26T03:33:11.025Z,16.73
2022-10-26T03:35:37.306Z,17.00
2022-10-26T03:38:03.686Z,16.80
2022-10-26T03:40:29.995Z,16.86
2022-10-26T03:42:56.341Z,16.91
2022-10-26T03:45:22.683Z,16.78
2022-10-26T03:47:49.788Z,16.86
2022-10-26T03:50:19.113Z,16.74
2022-10-26T03:52:47.274Z,16.87
2022-10-26T03:55:14.391Z,16.97
2022-10-26T03:57:45.468Z,16.90
2022-10-26T04:00:17.195Z,16.87
2022-10-26T04:02:48.558Z,16.95
2022-10-26T04:05:16.516Z,16.81
2022-10-26T04:07:43.178Z,16.69
2022-10-26T04:10:10.398Z,16.62
2022-10-26T04:12:38.079Z,16.80
2022-10-26T04:15:06.833Z,16.79
2022-10-26T04:17:33.303Z,16.76
2022-10-26T04:19:59.641Z,16.74
2022-10-26T04:22:26.032Z,16.76
2022-10-26T04:24:52.477Z,16.80
2022-10-26T04:27:18.783Z,16.99
2022-10-26T04:29:45.213Z,16.78
2022-10-26T04:32:11.513Z,16.82
2022-10-26T04:34:37.874Z,16.87
2022-10-26T04:37:04.213Z,16.59
2022-10-26T04:39:30.517Z,16.96
2022-10-26T04:41:56.832Z,16.86
2022-10-26T04:44:23.153Z,16.81
2022-10-26T04:46:49.542Z,16.88
2022-10-26T04:49:15.903Z,16.85
2022-10-26T04:51:42.247Z,16.85
2022-10-26T04:54:08.599Z,16.89
2022-10-26T04:56:34.999Z,16.74
2022-10-26T04:59:01.506Z,16.86
2022-10-26T05:01:28.014Z,16.90
2022-10-26T05:03:54.761Z,16.85
2022-10-26T05:06:21.644Z,17.12
2022-10-26T05:08:48.387Z,17.12
2022-10-26T05:11:14.850Z,16.99
2022-10-26T05:13:41.351Z,17.07
2022-10-26T05:16:07.922Z,16.78
2022-10-26T05:18:34.240Z,16.75
2022-10-26T05:21:00.570Z,17.01
2022-10-26T05:23:26.898Z,17.12
2022-10-26T05:25:55.258Z,17.12
2022-10-26T05:28:21.765Z,16.99
2022-10-26T05:30:48.244Z,17.09
2022-10-26T05:33:15.012Z,17.05
2022-10-26T05:35:41.617Z,16.77
2022-10-26T05:38:09.782Z,17.18
2022-10-26T05:40:36.667Z,17.06
2022-10-26T05:43:03.468Z,17.22
2022-10-26T05:45:30.316Z,16.80
2022-10-26T05:47:58.718Z,17.07
2022-10-26T05:50:28.720Z,17.13
2022-10-26T05:52:55.752Z,17.20
2022-10-26T05:55:22.976Z,17.31
2022-10-26T05:57:49.845Z,17.21
2022-10-26T06:00:24.807Z,16.99
2022-10-26T06:03:09.950Z,17.19
2022-10-26T06:05:45.250Z,17.33
2022-10-26T06:08:12.070Z,17.30
2022-10-26T06:10:39.212Z,17.23
2022-10-26T06:13:05.788Z,17.23
2022-10-26T06:15:37.400Z,17.15
2022-10-26T06:18:25.615Z,17.29
2022-10-26T06:21:10.453Z,16.93
2022-10-26T06:24:07.696Z,17.30
2022-10-26T06:27:18.576Z,17.28
2022-10-26T06:30:07.144Z,17.27
2022-10-26T06:32:34.060Z,17.07
2022-10-26T06:35:29.851Z,17.27
2022-10-26T06:37:58.994Z,16.94
2022-10-26T06:40:26.101Z,16.85
2022-10-26T06:42:52.705Z,17.07
2022-10-26T06:45:19.546Z,17.06
2022-10-26T06:48:00.499Z,17.15
2022-10-26T06:50:42.423Z,17.24
2022-10-26T06:53:30.875Z,17.24
2022-10-26T06:56:00.593Z,17.21
2022-10-26T06:58:34.910Z,17.28
2022-10-26T07:01:01.553Z,17.38
2022-10-26T07:03:27.881Z,17.27
2022-10-26T07:05:54.347Z,17.48
2022-10-26T07:08:20.785Z,17.29
2022-10-26T07:10:47.332Z,17.41
2022-10-26T07:13:13.687Z,17.39
2022-10-26T07:15:41.078Z,17.31
2022-10-26T07:18:08.350Z,17.56
2022-10-26T07:20:39.505Z,17.61
2022-10-26T07:23:07.503Z,17.64
2022-10-26T07:25:35.114Z,17.71
2022-10-26T07:28:01.946Z,17.40
2022-10-26T07:30:29.739Z,17.59
2022-10-26T07:33:04.622Z,17.73
2022-10-26T07:35:30.926Z,17.79
2022-10-26T07:37:59.000Z,17.73
2022-10-26T07:40:26.367Z,17.92
2022-10-26T07:42:53.511Z,17.91
2022-10-26T07:45:20.173Z,17.76
2022-10-26T07:47:46.537Z,17.20
2022-10-26T07:50:13.089Z,18.05
2022-10-26T07:52:41.267Z,17.85
2022-10-26T07:55:09.562Z,18.04
2022-10-26T07:57:36.161Z,18.10
2022-10-26T08:00:05.353Z,18.28
2022-10-26T08:02:31.846Z,18.36
2022-10-26T08:04:58.169Z,18.40
2022-10-26T08:07:26.219Z,18.37
2022-10-26T08:09:52.830Z,18.38
2022-10-26T08:12:19.419Z,18.07
2022-10-26T08:14:45.895Z,18.28
2022-10-26T08:17:12.464Z,18.40
2022-10-26T08:19:38.798Z,18.52
2022-10-26T08:22:06.369Z,18.22
2022-10-26T08:24:32.791Z,18.60
2022-10-26T08:26:59.104Z,18.60
2022-10-26T08:29:25.392Z,18.51
2022-10-26T08:31:51.686Z,18.65
2022-10-26T08:34:18.004Z,18.53
2022-10-26T08:36:44.299Z,18.53
2022-10-26T08:39:10.640Z,18.48
2022-10-26T08:41:42.527Z,18.88
2022-10-26T08:44:46.624Z,19.03
2022-10-26T08:47:30.985Z,18.99
2022-10-26T08:50:13.289Z,18.89
2022-10-26T08:52:49.832Z,19.18
2022-10-26T08:55:20.280Z,19.17
2022-10-26T08:57:49.191Z,19.37
2022-10-26T09:00:20.318Z,19.32
2022-10-26T09:02:53.505Z,19.54
2022-10-26T09:05:38.956Z,19.54
2022-10-26T09:08:08.896Z,19.52
2022-10-26T09:11:12.511Z,19.61
2022-10-26T09:14:09.822Z,19.62
2022-10-26T09:17:03.896Z,20.05
2022-10-26T09:19:48.622Z,20.27
2022-10-26T09:22:14.837Z,20.48
2022-10-26T09:24:55.845Z,20.56
2022-10-26T09:27:34.580Z,20.50
2022-10-26T09:30:12.764Z,20.27
2022-10-26T09:32:44.512Z,20.58
2022-10-26T09:35:18.980Z,20.56
2022-10-26T09:37:51.516Z,20.49
2022-10-26T09:40:21.752Z,20.83
2022-10-26T09:43:24.543Z,20.89
2022-10-26T09:45:52.581Z,20.90
2022-10-26T09:48:26.522Z,20.93
2022-10-26T09:50:53.059Z,20.75
2022-10-26T09:53:19.518Z,20.83
2022-10-26T09:55:48.289Z,21.19
2022-10-26T09:58:19.204Z,21.59
2022-10-26T10:00:46.588Z,21.75
2022-10-26T10:03:27.756Z,21.37
2022-10-26T10:05:54.506Z,21.63
2022-10-26T10:08:27.524Z,21.75
2022-10-26T10:11:08.049Z,22.48
2022-10-26T10:13:36.845Z,24.03
2022-10-26T10:16:05.501Z,25.76
2022-10-26T10:18:33.321Z,25.71
2022-10-26T10:21:00.157Z,25.97
2022-10-26T10:23:33.703Z,26.43
2022-10-26T10:26:10.832Z,25.24
2022-10-26T10:28:38.221Z,24.93
2022-10-26T10:31:17.903Z,24.96
2022-10-26T10:33:45.641Z,24.89
2022-10-26T10:36:17.635Z,25.28
2022-10-26T10:38:47.169Z,25.48
2022-10-26T10:41:18.572Z,26.01
2022-10-26T10:43:51.830Z,25.37
2022-10-26T10:46:21.273Z,25.42
2022-10-26T10:48:53.854Z,24.99
2022-10-26T10:51:24.038Z,25.45
2022-10-26T10:53:53.187Z,25.65
2022-10-26T10:56:33.636Z,25.44
2022-10-26T10:59:12.013Z,25.96
2022-10-26T11:01:43.183Z,24.91
2022-10-26T11:04:36.691Z,24.88
2022-10-26T11:07:07.021Z,24.49
2022-10-26T11:09:38.695Z,24.76
2022-10-26T11:12:15.250Z,24.65
2022-10-26T11:14:48.988Z,25.26
2022-10-26T11:17:24.041Z,25.20
2022-10-26T11:19:59.564Z,24.86
2022-10-26T11:22:31.378Z,24.66
2022-10-26T11:25:07.699Z,24.87
2022-10-26T11:27:43.871Z,25.67
2022-10-26T11:30:21.744Z,25.14
2022-10-26T11:32:56.166Z,25.00
2022-10-26T11:35:45.394Z,25.58
2022-10-26T11:38:33.183Z,25.30
2022-10-26T11:41:17.107Z,24.26
2022-10-26T11:43:53.294Z,23.82
2022-10-26T11:46:26.555Z,23.80
2022-10-26T11:49:02.230Z,23.29
2022-10-26T11:51:46.647Z,23.50
2022-10-26T11:54:19.054Z,23.02
2022-10-26T11:56:48.751Z,23.51
2022-10-26T11:59:22.200Z,24.21
2022-10-26T12:01:56.882Z,24.26
2022-10-26T12:04:28.055Z,24.85
2022-10-26T12:06:56.267Z,25.61
2022-10-26T12:09:32.149Z,25.19
2022-10-26T12:12:14.123Z,25.47
2022-10-26T12:14:56.057Z,25.49
2022-10-26T12:17:46.988Z,25.37
2022-10-26T12:20:45.739Z,25.52
2022-10-26T12:23:19.083Z,25.29
2022-10-26T12:26:20.251Z,25.35
2022-10-26T12:28:48.750Z,25.26
2022-10-26T12:31:46.586Z,25.13
2022-10-26T12:34:15.608Z,25.19
2022-10-26T12:36:54.843Z,25.40
2022-10-26T12:39:37.612Z,25.85
2022-10-26T12:42:09.692Z,25.78
2022-10-26T12:44:37.680Z,25.31
2022-10-26T12:47:05.628Z,25.74
2022-10-26T12:50:06.036Z,25.58
2022-10-26T12:52:43.884Z,25.20
2022-10-26T12:55:12.999Z,25.11
2022-10-26T12:57:53.289Z,25.06
2022-10-26T13:00:25.480Z,25.31
2022-10-26T13:03:24.982Z,25.38
2022-10-26T13:06:45.201Z,25.31
2022-10-26T13:09:20.074Z,25.35
2022-10-26T13:11:50.291Z,25.25
2022-10-26T13:14:29.910Z,25.12
2022-10-26T13:16:56.267Z,24.83
2022-10-26T13:19:25.451Z,24.99
2022-10-26T13:21:52.170Z,24.66
2022-10-26T13:24:24.569Z,24.52
2022-10-26T13:27:06.073Z,24.47
2022-10-26T13:29:53.110Z,24.51
2022-10-26T13:32:20.478Z,24.32
2022-10-26T13:34:47.419Z,24.19
2022-10-26T13:37:26.831Z,24.15
2022-10-26T13:39:55.937Z,24.52
2022-10-26T13:42:27.487Z,24.09
2022-10-26T13:44:59.487Z,24.32
2022-10-26T13:47:38.959Z,24.43
2022-10-26T13:50:08.289Z,24.64
2022-10-26T13:52:47.979Z,24.55
2022-10-26T13:55:25.194Z,24.66
2022-10-26T13:58:05.436Z,24.75
2022-10-26T14:00:32.102Z,24.61
2022-10-26T14:02:58.426Z,24.53
2022-10-26T14:05:25.276Z,24.42
2022-10-26T14:07:56.648Z,24.71
2022-10-26T14:10:40.505Z,24.04
2022-10-26T14:13:08.690Z,23.94
2022-10-26T14:15:36.674Z,24.34
2022-10-26T14:18:04.259Z,24.07
2022-10-26T14:20:32.077Z,23.99
2022-10-26T14:22:58.560Z,24.10
2022-10-26T14:25:41.603Z,24.32
2022-10-26T14:28:30.424Z,24.60
2022-10-26T14:31:16.719Z,24.16
2022-10-26T14:33:46.003Z,24.32
2022-10-26T14:36:13.052Z,24.40
2022-10-26T14:38:46.225Z,24.34
2022-10-26T14:41:16.602Z,24.33
2022-10-26T14:43:44.238Z,24.28
2022-10-26T14:46:19.146Z,24.27
2022-10-26T14:48:57.592Z,24.19
2022-10-26T14:51:29.210Z,23.81
2022-10-26T14:54:00.995Z,23.92
2022-10-26T14:56:29.262Z,24.07
2022-10-26T14:58:57.298Z,24.00
2022-10-26T15:01:23.851Z,23.90
2022-10-26T15:03:55.330Z,24.02
2022-10-26T15:06:29.212Z,23.83
2022-10-26T15:08:57.409Z,23.71
2022-10-26T15:11:24.494Z,23.57
2022-10-26T15:13:51.421Z,23.54
2022-10-26T15:16:20.760Z,23.48
2022-10-26T15:18:51.582Z,23.72
2022-10-26T15:21:30.253Z,23.64
2022-10-26T15:23:57.674Z,23.41
2022-10-26T15:26:25.090Z,23.64
2022-10-26T15:28:52.758Z,23.47
2022-10-26T15:31:18.996Z,23.75
2022-10-26T15:33:51.483Z,23.56
2022-10-26T15:36:23.587Z,23.53
2022-10-26T15:38:50.339Z,23.20
2022-10-26T15:41:38.783Z,23.25
2022-10-26T15:44:14.477Z,23.20
2022-10-26T15:46:41.131Z,23.21
2022-10-26T15:49:14.065Z,22.97
2022-10-26T15:51:40.400Z,23.30
2022-10-26T15:54:06.842Z,23.02
2022-10-26T15:56:33.222Z,23.08
2022-10-26T15:58:59.642Z,22.86
2022-10-26T16:01:28.065Z,23.07
2022-10-26T16:03:55.159Z,23.02
2022-10-26T16:06:28.849Z,22.67
2022-10-26T16:08:58.379Z,22.84
2022-10-26T16:11:24.738Z,22.63
2022-10-26T16:16:22.577Z,22.59
2022-10-26T16:19:06.168Z,22.40
2022-10-26T16:21:41.806Z,22.60
2022-10-26T16:24:09.400Z,22.43
2022-10-26T16:26:35.849Z,22.49
2022-10-26T16:29:02.171Z,22.41
2022-10-26T16:31:28.494Z,22.35
2022-10-26T16:33:54.867Z,22.03
2022-10-26T16:36:21.185Z,22.07
2022-10-26T16:38:48.144Z,22.01
2022-10-26T16:41:16.982Z,21.83
2022-10-26T16:43:44.859Z,22.06
2022-10-26T16:46:13.917Z,22.03
2022-10-26T16:48:41.703Z,22.11
2022-10-26T16:51:10.530Z,22.05
2022-10-26T16:53:37.165Z,22.18
2022-10-26T16:56:05.574Z,22.16
2022-10-26T16:58:34.349Z,21.56
2022-10-26T17:01:04.101Z,22.12
2022-10-26T17:03:30.512Z,22.02
2022-10-26T17:06:02.640Z,22.19
2022-10-26T17:08:29.706Z,22.03
2022-10-26T17:11:02.482Z,22.06
2022-10-26T17:13:28.836Z,21.81
2022-10-26T17:15:55.278Z,21.80
2022-10-26T17:18:21.589Z,21.57
2022-10-26T17:20:51.754Z,21.72
2022-10-26T17:23:18.379Z,21.41
2022-10-26T17:25:44.776Z,21.61
2022-10-26T17:28:12.539Z,21.71
2022-10-26T17:30:39.799Z,21.33
2022-10-26T17:33:06.699Z,21.11
2022-10-26T17:35:33.552Z,21.37
2022-10-26T17:38:00.035Z,21.29
2022-10-26T17:40:26.472Z,21.14
2022-10-26T17:42:53.018Z,21.04
2022-10-26T17:45:19.330Z,20.83
2022-10-26T17:47:45.875Z,20.90
2022-10-26T17:50:12.290Z,20.88
2022-10-26T17:52:38.669Z,20.76
2022-10-26T17:55:05.408Z,20.92
2022-10-26T17:57:32.342Z,20.95
2022-10-26T17:59:58.640Z,20.76
2022-10-26T18:02:25.286Z,20.82
2022-10-26T18:04:51.753Z,20.78
2022-10-26T18:07:18.170Z,20.34
2022-10-26T18:09:44.492Z,20.78
2022-10-26T18:12:11.045Z,20.69
2022-10-26T18:14:37.408Z,20.55
2022-10-26T18:17:03.918Z,20.60
2022-10-26T18:19:30.312Z,20.62
2022-10-26T18:21:56.665Z,20.36
2022-10-26T18:24:22.964Z,20.47
2022-10-26T18:26:49.481Z,20.62
2022-10-26T18:29:15.947Z,20.33
2022-10-26T18:31:44.200Z,20.52
2022-10-26T18:34:10.876Z,20.08
2022-10-26T18:39:03.792Z,20.09
2022-10-26T18:41:30.195Z,19.95
2022-10-26T18:43:58.991Z,19.88
2022-10-26T18:46:28.065Z,19.85
2022-10-26T18:48:55.637Z,19.67
2022-10-26T18:51:26.167Z,19.79
2022-10-26T18:53:52.519Z,19.37
2022-10-26T18:56:21.302Z,19.63
2022-10-26T18:58:49.817Z,19.87
2022-10-26T19:01:19.036Z,19.68
2022-10-26T19:03:52.321Z,19.75
2022-10-26T19:06:29.699Z,19.59
2022-10-26T19:09:02.656Z,19.35
2022-10-26T19:11:31.513Z,19.31
2022-10-26T19:13:58.630Z,19.29
2022-10-26T19:16:44.695Z,19.32
2022-10-26T19:19:13.873Z,19.22
2022-10-26T19:21:40.363Z,19.09
2022-10-26T19:24:37.767Z,19.22
2022-10-26T19:27:04.701Z,18.73
2022-10-26T19:29:40.935Z,19.54
2022-10-26T19:32:07.342Z,18.89
2022-10-26T19:34:33.721Z,18.86
2022-10-26T19:37:00.142Z,19.04
2022-10-26T19:39:27.663Z,18.76
2022-10-26T19:41:54.091Z,18.70
2022-10-26T19:44:25.502Z,18.75
2022-10-26T19:46:52.110Z,19.31
2022-10-26T19:49:18.652Z,19.00
2022-10-26T19:51:44.993Z,19.29
2022-10-26T19:54:11.296Z,19.14
2022-10-26T19:56:37.951Z,19.28
2022-10-26T19:59:05.227Z,19.08
2022-10-26T20:01:32.200Z,18.96
2022-10-26T20:03:58.725Z,18.83
2022-10-26T20:06:25.086Z,18.87
2022-10-26T20:08:51.552Z,18.59
2022-10-26T20:11:18.561Z,18.90
2022-10-26T20:13:46.420Z,19.16
2022-10-26T20:16:14.182Z,19.20
2022-10-26T20:18:44.136Z,18.90
2022-10-26T20:21:15.998Z,18.77
2022-10-26T20:23:43.105Z,19.03
2022-10-26T20:26:11.742Z,18.83
2022-10-26T20:28:44.463Z,18.79
2022-10-26T20:31:10.831Z,18.78
2022-10-26T20:33:37.183Z,18.89
2022-10-26T20:36:03.752Z,18.71
2022-10-26T20:38:30.606Z,18.48
2022-10-26T20:40:59.070Z,18.56
2022-10-26T20:43:27.046Z,18.67
2022-10-26T20:45:54.472Z,18.56
2022-10-26T20:48:21.992Z,18.56
2022-10-26T20:51:04.793Z,18.47
2022-10-26T20:53:37.854Z,18.62
2022-10-26T20:56:19.502Z,18.24
2022-10-26T20:58:57.580Z,18.51
2022-10-26T21:01:34.151Z,18.40
2022-10-26T21:04:02.338Z,18.47
2022-10-26T21:06:29.465Z,18.53
2022-10-26T21:08:56.781Z,18.41
2022-10-26T21:11:24.800Z,18.54
2022-10-26T21:13:53.317Z,18.28
2022-10-26T21:16:19.806Z,18.49
2022-10-26T21:18:46.129Z,18.49
2022-10-26T21:21:12.550Z,18.45
2022-10-26T21:23:40.378Z,18.55
2022-10-26T21:26:08.084Z,18.57
2022-10-26T21:28:41.301Z,18.44
2022-10-26T21:31:10.254Z,18.45
2022-10-26T21:33:36.871Z,18.39
2022-10-26T21:36:05.573Z,18.28
2022-10-26T21:38:32.965Z,18.09
2022-10-26T21:41:04.509Z,18.02
2022-10-26T21:43:31.919Z,18.11
2022-10-26T21:45:59.319Z,18.01
2022-10-26T21:48:26.794Z,17.93
2022-10-26T21:50:53.425Z,18.16
2022-10-26T21:53:19.862Z,18.08
2022-10-26T21:55:46.743Z,17.97
2022-10-26T21:58:13.421Z,17.69
2022-10-26T22:00:39.787Z,17.65
2022-10-26T22:03:06.200Z,17.67
2022-10-26T22:05:33.498Z,17.77
2022-10-26T22:07:59.853Z,17.81
2022-10-26T22:10:26.257Z,17.68
2022-10-26T22:12:52.596Z,17.70
2022-10-26T22:15:18.973Z,17.66
2022-10-26T22:17:45.276Z,17.63
2022-10-26T22:20:14.585Z,17.68
2022-10-26T22:22:40.902Z,17.76
2022-10-26T22:25:07.606Z,17.69
2022-10-26T22:27:33.989Z,17.40
2022-10-26T22:30:00.408Z,16.94
2022-10-26T22:32:26.710Z,17.02
2022-10-26T22:35:00.262Z,17.43
2022-10-26T22:37:37.005Z,17.43
2022-10-26T22:40:03.891Z,17.51
2022-10-26T22:42:30.187Z,17.58
2022-10-26T22:44:56.590Z,17.74
2022-10-26T22:47:23.057Z,17.72
2022-10-26T22:49:49.431Z,17.75
2022-10-26T22:52:15.713Z,17.80
2022-10-26T22:54:42.113Z,18.00
2022-10-26T22:57:08.394Z,17.88
2022-10-26T22:59:34.699Z,17.89
2022-10-26T23:02:01.082Z,18.11
2022-10-26T23:04:27.466Z,18.22
2022-10-26T23:06:54.091Z,18.37
2022-10-26T23:09:20.459Z,18.34
2022-10-26T23:11:46.753Z,18.25
2022-10-26T23:14:13.221Z,18.33
2022-10-26T23:16:39.531Z,18.07
2022-10-26T23:19:05.958Z,17.95
2022-10-26T23:21:32.304Z,18.00
2022-10-26T23:23:58.786Z,17.90
2022-10-26T23:26:25.284Z,17.93
2022-10-26T23:28:51.711Z,18.00
2022-10-26T23:31:23.525Z,18.04
2022-10-26T23:33:51.217Z,17.96
2022-10-26T23:36:18.445Z,18.01
2022-10-26T23:38:44.949Z,17.76
2022-10-26T23:41:12.971Z,17.88
2022-10-26T23:43:40.102Z,17.83
2022-10-26T23:46:07.068Z,17.79
2022-10-26T23:48:33.654Z,17.54
2022-10-26T23:50:59.960Z,17.56
2022-10-26T23:53:26.538Z,17.58
2022-10-26T23:55:53.212Z,17.68
2022-10-26T23:58:19.997Z,17.68
